createdAt,value
2023-05-20T00:00:22.231Z,50.60
2023-05-20T00:05:52.426Z,50.50
2023-05-20T00:08:23.706Z,50.60
2023-05-20T00:10:54.852Z,50.50
2023-05-20T00:13:28.614Z,50.50
2023-05-20T00:16:03.375Z,50.50
2023-05-20T00:18:32.987Z,50.50
2023-05-20T00:21:34.283Z,50.50
2023-05-20T00:24:04.589Z,50.50
2023-05-20T00:26:42.163Z,50.50
2023-05-20T00:29:11.903Z,50.50
2023-05-20T00:31:40.344Z,50.50
2023-05-20T00:34:10.888Z,50.50
2023-05-20T00:36:42.542Z,50.50
2023-05-20T00:39:10.927Z,50.50
2023-05-20T00:41:49.384Z,51.10
2023-05-20T00:44:27.635Z,50.50
2023-05-20T00:47:00.320Z,50.50
2023-05-20T00:49:34.634Z,50.50
2023-05-20T00:52:07.189Z,50.40
2023-05-20T00:54:42.754Z,50.50
2023-05-20T00:57:24.763Z,50.50
2023-05-20T00:59:52.061Z,50.40
2023-05-20T01:02:26.725Z,50.40
2023-05-20T01:05:07.834Z,50.40
2023-05-20T01:07:48.382Z,50.50
2023-05-20T01:10:15.644Z,50.50
2023-05-20T01:12:54.423Z,50.40
2023-05-20T01:15:32.123Z,50.50
2023-05-20T01:18:22.907Z,51.10
2023-05-20T01:21:00.728Z,50.40
2023-05-20T01:23:44.487Z,50.40
2023-05-20T01:26:25.884Z,50.40
2023-05-20T01:29:08.702Z,50.40
2023-05-20T01:32:04.726Z,50.50
2023-05-20T01:35:01.718Z,50.40
2023-05-20T01:37:45.507Z,50.40
2023-05-20T01:40:32.793Z,50.40
2023-05-20T01:43:10.894Z,50.40
2023-05-20T01:45:55.148Z,50.40
2023-05-20T01:48:35.621Z,50.40
2023-05-20T01:51:13.660Z,50.40
2023-05-20T01:53:44.228Z,50.40
2023-05-20T01:56:23.996Z,50.50
2023-05-20T01:58:52.994Z,50.40
2023-05-20T02:01:23.559Z,50.40
2023-05-20T02:03:54.846Z,50.40
2023-05-20T02:06:22.601Z,50.40
2023-05-20T02:08:53.528Z,50.40
2023-05-20T02:11:29.563Z,50.50
2023-05-20T02:14:01.981Z,50.40
2023-05-20T02:16:47.502Z,50.60
2023-05-20T02:22:00.653Z,50.10
2023-05-20T02:24:34.749Z,49.80
2023-05-20T02:27:09.742Z,49.70
2023-05-20T02:29:44.780Z,49.70
2023-05-20T02:32:18.172Z,49.70
2023-05-20T02:38:34.595Z,49.80
2023-05-20T02:48:13.016Z,50.10
2023-05-20T02:50:48.506Z,50.10
2023-05-20T02:53:34.996Z,50.20
2023-05-20T02:56:37.439Z,50.20
2023-05-20T02:59:27.102Z,50.20
2023-05-20T03:02:06.593Z,50.20
2023-05-20T03:04:42.991Z,50.30
2023-05-20T03:10:15.440Z,50.40
2023-05-20T03:12:52.806Z,50.40
2023-05-20T03:15:26.109Z,50.50
2023-05-20T03:18:00.729Z,50.50
2023-05-20T03:20:39.640Z,50.50
2023-05-20T03:23:19.861Z,50.50
2023-05-20T03:25:57.432Z,50.50
2023-05-20T03:28:26.283Z,51.10
2023-05-20T03:30:56.533Z,50.50
2023-05-20T03:33:32.346Z,50.50
2023-05-20T03:36:10.184Z,50.50
2023-05-20T03:38:42.387Z,50.50
2023-05-20T03:41:17.839Z,50.40
2023-05-20T03:44:05.885Z,50.50
2023-05-20T03:46:56.111Z,50.50
2023-05-20T03:49:29.590Z,50.50
2023-05-20T03:52:02.911Z,50.50
2023-05-20T03:54:49.175Z,50.40
2023-05-20T03:57:20.111Z,51.10
2023-05-20T03:59:53.819Z,50.40
2023-05-20T04:02:29.795Z,50.50
2023-05-20T04:05:16.278Z,50.40
2023-05-20T04:07:48.344Z,50.40
2023-05-20T04:10:25.413Z,50.40
2023-05-20T04:12:59.874Z,50.40
2023-05-20T04:15:49.310Z,50.40
2023-05-20T04:18:25.884Z,50.40
2023-05-20T04:21:03.907Z,50.40
2023-05-20T04:23:35.702Z,50.40
2023-05-20T04:26:04.633Z,50.50
2023-05-20T04:28:42.745Z,50.40
2023-05-20T04:31:11.359Z,50.50
2023-05-20T04:33:45.631Z,50.50
2023-05-20T04:36:51.177Z,50.40
2023-05-20T04:39:21.119Z,50.40
2023-05-20T04:41:49.707Z,50.40
2023-05-20T04:44:26.597Z,50.50
2023-05-20T04:46:56.646Z,50.40
2023-05-20T04:49:26.777Z,50.50
2023-05-20T04:52:03.353Z,50.30
2023-05-20T04:54:43.349Z,50.40
2023-05-20T04:58:05.206Z,50.30
2023-05-20T05:00:35.967Z,50.30
2023-05-20T05:03:07.908Z,50.40
2023-05-20T05:05:49.600Z,50.30
2023-05-20T05:08:36.895Z,50.40
2023-05-20T05:11:22.523Z,50.30
2023-05-20T05:13:54.673Z,50.40
2023-05-20T05:16:27.460Z,50.30
2023-05-20T05:19:03.803Z,50.30
2023-05-20T05:21:34.877Z,50.30
2023-05-20T05:24:15.228Z,50.30
2023-05-20T05:26:42.367Z,50.40
2023-05-20T05:29:25.289Z,50.40
2023-05-20T05:32:08.083Z,50.00
2023-05-20T05:34:41.070Z,49.90
2023-05-20T05:37:17.162Z,49.50
2023-05-20T05:39:44.604Z,49.50
2023-05-20T05:42:11.748Z,49.40
2023-05-20T05:45:09.403Z,50.00
2023-05-20T05:47:40.689Z,49.60
2023-05-20T05:50:14.874Z,49.70
2023-05-20T05:52:42.024Z,49.90
2023-05-20T05:55:12.368Z,50.00
2023-05-20T05:58:10.938Z,50.10
2023-05-20T06:03:37.867Z,50.30
2023-05-20T06:06:13.459Z,50.30
2023-05-20T06:08:43.813Z,50.40
2023-05-20T06:11:25.262Z,50.60
2023-05-20T06:14:02.697Z,50.40
2023-05-20T06:16:42.622Z,50.50
2023-05-20T06:19:39.871Z,50.50
2023-05-20T06:22:16.946Z,50.50
2023-05-20T06:24:53.312Z,51.10
2023-05-20T06:27:25.955Z,51.20
2023-05-20T06:30:15.150Z,51.30
2023-05-20T06:32:54.196Z,51.60
2023-05-20T06:35:32.902Z,51.60
2023-05-20T06:38:04.345Z,51.40
2023-05-20T06:40:41.942Z,51.60
2023-05-20T06:43:09.352Z,52.10
2023-05-20T06:45:53.836Z,51.70
2023-05-20T06:48:46.459Z,52.00
2023-05-20T06:51:22.968Z,52.00
2023-05-20T06:54:08.754Z,52.30
2023-05-20T06:56:38.213Z,52.20
2023-05-20T06:59:08.648Z,52.10
2023-05-20T07:01:41.391Z,52.30
2023-05-20T07:04:15.777Z,52.40
2023-05-20T07:06:43.883Z,52.30
2023-05-20T07:09:21.550Z,52.30
2023-05-20T07:11:56.028Z,52.50
2023-05-20T07:14:26.243Z,52.50
2023-05-20T07:17:12.890Z,52.70
2023-05-20T07:19:50.417Z,52.70
2023-05-20T07:22:30.691Z,52.60
2023-05-20T07:25:01.600Z,52.40
2023-05-20T07:27:43.521Z,52.20
2023-05-20T07:30:14.378Z,51.80
2023-05-20T07:32:58.621Z,52.20
2023-05-20T07:35:28.895Z,51.90
2023-05-20T07:38:06.686Z,51.90
2023-05-20T07:40:45.445Z,51.90
2023-05-20T07:43:30.354Z,51.80
2023-05-20T07:46:11.775Z,51.70
2023-05-20T07:48:40.675Z,51.70
2023-05-20T07:51:13.362Z,51.70
2023-05-20T07:54:01.397Z,51.60
2023-05-20T07:56:28.647Z,51.70
2023-05-20T07:58:56.510Z,51.60
2023-05-20T08:01:23.375Z,51.70
2023-05-20T08:03:50.338Z,51.50
2023-05-20T08:06:17.362Z,51.50
2023-05-20T08:08:44.269Z,51.60
2023-05-20T08:11:14.035Z,52.10
2023-05-20T08:13:40.984Z,51.60
2023-05-20T08:16:07.918Z,51.60
2023-05-20T08:18:38.052Z,51.50
2023-05-20T08:21:08.140Z,51.50
2023-05-20T08:23:38.751Z,51.20
2023-05-20T08:26:07.767Z,51.70
2023-05-20T08:28:34.651Z,51.30
2023-05-20T08:31:11.842Z,51.80
2023-05-20T08:33:38.630Z,52.50
2023-05-20T08:36:06.688Z,51.70
2023-05-20T08:38:33.499Z,51.70
2023-05-20T08:41:16.919Z,51.70
2023-05-20T08:43:43.908Z,51.70
2023-05-20T08:46:19.024Z,51.80
2023-05-20T08:48:45.962Z,51.50
2023-05-20T08:51:18.616Z,51.40
2023-05-20T08:53:45.773Z,51.50
2023-05-20T08:56:15.588Z,51.50
2023-05-20T08:58:43.478Z,51.60
2023-05-20T09:01:10.247Z,51.60
2023-05-20T09:03:37.164Z,51.50
2023-05-20T09:06:07.515Z,52.10
2023-05-20T09:08:37.575Z,51.50
2023-05-20T09:11:04.437Z,51.50
2023-05-20T09:13:34.840Z,51.70
2023-05-20T09:19:11.051Z,51.90
2023-05-20T09:21:39.128Z,50.90
2023-05-20T09:24:06.723Z,50.80
2023-05-20T09:26:33.715Z,50.70
2023-05-20T09:29:08.437Z,50.50
2023-05-20T09:31:35.813Z,50.50
2023-05-20T09:34:02.930Z,50.50
2023-05-20T09:36:31.870Z,50.50
2023-05-20T09:41:54.405Z,50.60
2023-05-20T09:44:41.224Z,50.70
2023-05-20T09:47:08.780Z,50.80
2023-05-20T09:49:35.851Z,50.70
2023-05-20T09:52:02.653Z,50.70
2023-05-20T09:54:29.999Z,50.70
2023-05-20T10:00:22.279Z,50.80
2023-05-20T10:02:50.544Z,50.70
2023-05-20T10:05:39.828Z,50.70
2023-05-20T10:08:27.337Z,50.80
2023-05-20T10:11:01.896Z,50.90
2023-05-20T10:13:47.625Z,51.00
2023-05-20T10:16:25.209Z,51.00
2023-05-20T10:18:52.037Z,50.90
2023-05-20T10:21:22.556Z,50.90
2023-05-20T10:23:49.371Z,50.90
2023-05-20T10:26:16.203Z,50.90
2023-05-20T10:28:42.973Z,50.90
2023-05-20T10:31:17.401Z,50.90
2023-05-20T10:33:44.704Z,50.80
2023-05-20T10:36:11.670Z,51.00
2023-05-20T10:38:38.503Z,50.90
2023-05-20T10:41:09.399Z,50.90
2023-05-20T10:43:36.246Z,51.00
2023-05-20T10:46:05.189Z,51.00
2023-05-20T10:48:34.554Z,50.90
2023-05-20T10:51:20.227Z,50.90
2023-05-20T10:53:47.046Z,51.10
2023-05-20T10:56:19.107Z,50.90
2023-05-20T10:59:10.948Z,50.90
2023-05-20T11:01:37.882Z,51.10
2023-05-20T11:04:19.982Z,50.70
2023-05-20T11:06:50.449Z,50.80
2023-05-20T11:09:17.297Z,50.70
2023-05-20T11:11:49.978Z,50.70
2023-05-20T11:14:18.283Z,50.60
2023-05-20T11:16:45.718Z,50.50
2023-05-20T11:19:16.542Z,50.40
2023-05-20T11:21:44.359Z,50.30
2023-05-20T11:24:11.220Z,50.60
2023-05-20T11:26:38.134Z,50.70
2023-05-20T11:29:04.953Z,51.00
2023-05-20T11:31:32.387Z,50.90
2023-05-20T11:34:01.609Z,50.90
2023-05-20T11:36:37.838Z,51.10
2023-05-20T11:39:05.684Z,51.30
2023-05-20T11:41:35.781Z,51.30
2023-05-20T11:44:08.188Z,51.40
2023-05-20T11:46:35.150Z,51.60
2023-05-20T11:49:02.059Z,51.50
2023-05-20T11:51:29.054Z,51.60
2023-05-20T11:54:02.513Z,51.60
2023-05-20T11:56:30.672Z,51.60
2023-05-20T11:58:58.850Z,51.60
2023-05-20T12:01:26.087Z,51.60
2023-05-20T12:04:03.801Z,51.60
2023-05-20T12:06:31.681Z,51.80
2023-05-20T12:08:59.999Z,51.70
2023-05-20T12:11:26.760Z,51.80
2023-05-20T12:13:53.531Z,51.30
2023-05-20T12:16:20.638Z,51.80
2023-05-20T12:18:47.543Z,51.80
2023-05-20T12:21:17.450Z,51.90
2023-05-20T12:23:44.358Z,51.90
2023-05-20T12:26:11.485Z,51.80
2023-05-20T12:28:38.274Z,51.50
2023-05-20T12:31:06.804Z,52.00
2023-05-20T12:33:33.662Z,52.20
2023-05-20T12:36:02.999Z,52.00
2023-05-20T12:38:29.961Z,52.00
2023-05-20T12:40:56.776Z,52.10
2023-05-20T12:43:23.636Z,51.20
2023-05-20T12:45:53.501Z,51.10
2023-05-20T12:48:23.604Z,51.40
2023-05-20T12:50:51.844Z,51.50
2023-05-20T12:53:23.269Z,51.80
2023-05-20T12:55:50.100Z,51.80
2023-05-20T12:58:16.976Z,51.80
2023-05-20T13:00:53.336Z,52.00
2023-05-20T13:03:20.225Z,52.10
2023-05-20T13:05:47.027Z,52.70
2023-05-20T13:08:16.930Z,52.10
2023-05-20T13:10:43.750Z,52.00
2023-05-20T13:13:10.685Z,52.10
2023-05-20T13:15:37.798Z,52.10
2023-05-20T13:18:06.838Z,52.20
2023-05-20T13:20:33.983Z,52.20
2023-05-20T13:23:01.083Z,52.10
2023-05-20T13:25:28.189Z,52.10
2023-05-20T13:27:55.122Z,52.10
2023-05-20T13:30:21.948Z,52.20
2023-05-20T13:32:48.799Z,52.30
2023-05-20T13:35:16.970Z,52.40
2023-05-20T13:37:43.898Z,52.70
2023-05-20T13:40:10.988Z,52.40
2023-05-20T13:42:38.103Z,52.30
2023-05-20T13:45:05.066Z,51.80
2023-05-20T13:47:35.083Z,51.50
2023-05-20T13:50:03.239Z,51.40
2023-05-20T13:52:44.939Z,51.30
2023-05-20T13:55:14.286Z,51.30
2023-05-20T13:57:42.870Z,51.90
2023-05-20T14:02:51.222Z,51.70
2023-05-20T14:05:19.297Z,52.10
2023-05-20T14:07:46.084Z,51.90
2023-05-20T14:10:22.404Z,52.30
2023-05-20T14:12:49.168Z,52.30
2023-05-20T14:15:24.622Z,52.30
2023-05-20T14:17:53.996Z,52.50
2023-05-20T14:20:20.782Z,52.80
2023-05-20T14:22:50.876Z,53.10
2023-05-20T14:25:17.656Z,52.80
2023-05-20T14:27:44.465Z,52.90
2023-05-20T14:30:11.765Z,53.10
2023-05-20T14:32:38.686Z,53.00
2023-05-20T14:35:05.782Z,53.20
2023-05-20T14:37:32.635Z,53.30
2023-05-20T14:39:59.559Z,53.50
2023-05-20T14:42:26.688Z,53.40
2023-05-20T14:44:53.547Z,53.70
2023-05-20T14:47:22.350Z,53.70
2023-05-20T14:49:50.204Z,53.80
2023-05-20T14:52:17.475Z,53.90
2023-05-20T14:54:44.273Z,54.20
2023-05-20T14:57:17.224Z,54.20
2023-05-20T14:59:44.157Z,54.20
2023-05-20T15:02:11.797Z,54.20
2023-05-20T15:04:40.857Z,54.60
2023-05-20T15:07:07.680Z,54.80
2023-05-20T15:09:35.187Z,54.20
2023-05-20T15:12:03.046Z,54.00
2023-05-20T15:14:29.794Z,53.80
2023-05-20T15:16:56.597Z,53.60
2023-05-20T15:19:26.727Z,53.30
2023-05-20T15:21:53.547Z,53.20
2023-05-20T15:24:21.050Z,53.40
2023-05-20T15:26:47.806Z,53.70
2023-05-20T15:29:14.587Z,53.80
2023-05-20T15:31:41.326Z,54.10
2023-05-20T15:34:09.185Z,54.10
2023-05-20T15:36:35.975Z,55.00
2023-05-20T15:39:03.007Z,54.30
2023-05-20T15:41:31.907Z,54.30
2023-05-20T15:43:58.708Z,54.40
2023-05-20T15:46:25.864Z,54.40
2023-05-20T15:48:55.025Z,54.60
2023-05-20T15:51:21.830Z,54.70
2023-05-20T15:53:48.581Z,54.70
2023-05-20T15:56:15.464Z,54.60
2023-05-20T15:58:42.524Z,54.70
2023-05-20T16:01:09.309Z,54.50
2023-05-20T16:03:36.378Z,54.30
2023-05-20T16:06:03.327Z,54.60
2023-05-20T16:08:30.154Z,54.30
2023-05-20T16:10:57.058Z,54.60
2023-05-20T16:13:23.878Z,54.60
2023-05-20T16:15:52.180Z,54.60
2023-05-20T16:18:19.149Z,54.80
2023-05-20T16:20:45.993Z,54.80
2023-05-20T16:23:12.779Z,55.40
2023-05-20T16:25:39.569Z,54.80
2023-05-20T16:28:09.378Z,55.00
2023-05-20T16:30:36.373Z,55.10
2023-05-20T16:33:03.441Z,54.40
2023-05-20T16:35:30.255Z,54.20
2023-05-20T16:38:03.185Z,54.00
2023-05-20T16:40:30.014Z,53.80
2023-05-20T16:42:59.989Z,53.50
2023-05-20T16:45:26.811Z,53.40
2023-05-20T16:47:53.829Z,53.60
2023-05-20T16:50:20.679Z,53.70
2023-05-20T16:52:47.468Z,53.90
2023-05-20T16:55:14.420Z,54.50
2023-05-20T16:57:45.195Z,54.00
2023-05-20T17:00:12.122Z,54.10
2023-05-20T17:02:38.951Z,54.20
2023-05-20T17:05:06.287Z,53.90
2023-05-20T17:07:33.678Z,54.30
2023-05-20T17:10:00.623Z,54.30
2023-05-20T17:12:28.132Z,54.30
2023-05-20T17:14:54.916Z,54.30
2023-05-20T17:17:22.792Z,54.30
2023-05-20T17:19:50.787Z,54.10
2023-05-20T17:22:17.764Z,54.30
2023-05-20T17:24:44.526Z,54.10
2023-05-20T17:27:12.509Z,54.30
2023-05-20T17:29:39.351Z,54.30
2023-05-20T17:32:06.410Z,54.30
2023-05-20T17:34:33.535Z,55.10
2023-05-20T17:37:00.842Z,54.30
2023-05-20T17:39:27.589Z,54.50
2023-05-20T17:41:54.504Z,54.50
2023-05-20T17:44:27.439Z,54.30
2023-05-20T17:46:54.325Z,54.50
2023-05-20T17:49:21.340Z,54.50
2023-05-20T17:51:48.191Z,54.60
2023-05-20T17:54:15.185Z,54.60
2023-05-20T17:56:44.466Z,54.70
2023-05-20T17:59:14.422Z,54.40
2023-05-20T18:01:46.415Z,54.00
2023-05-20T18:04:16.690Z,53.80
2023-05-20T18:06:46.056Z,53.60
2023-05-20T18:09:13.041Z,53.30
2023-05-20T18:11:41.477Z,53.20
2023-05-20T18:14:09.151Z,53.40
2023-05-20T18:16:36.580Z,53.60
2023-05-20T18:19:05.140Z,53.70
2023-05-20T18:21:35.242Z,53.70
2023-05-20T18:24:05.785Z,53.80
2023-05-20T18:26:35.210Z,53.90
2023-05-20T18:29:02.611Z,54.00
2023-05-20T18:31:31.001Z,54.00
2023-05-20T18:33:58.574Z,54.10
2023-05-20T18:36:27.738Z,54.10
2023-05-20T18:38:57.583Z,54.80
2023-05-20T18:41:32.372Z,54.30
2023-05-20T18:44:08.872Z,54.20
2023-05-20T18:46:35.648Z,54.20
2023-05-20T18:49:02.422Z,54.10
2023-05-20T18:51:33.230Z,54.10
2023-05-20T18:54:00.264Z,54.20
2023-05-20T18:56:27.417Z,54.20
2023-05-20T18:58:54.474Z,54.30
2023-05-20T19:01:25.928Z,54.30
2023-05-20T19:03:53.932Z,54.30
2023-05-20T19:06:22.056Z,54.20
2023-05-20T19:08:49.641Z,54.20
2023-05-20T19:11:16.587Z,54.20
2023-05-20T19:13:43.371Z,54.20
2023-05-20T19:16:10.200Z,54.30
2023-05-20T19:18:37.095Z,54.20
2023-05-20T19:21:04.162Z,54.20
2023-05-20T19:23:32.433Z,54.20
2023-05-20T19:25:59.333Z,54.20
2023-05-20T19:28:29.348Z,54.20
2023-05-20T19:30:56.161Z,54.20
2023-05-20T19:33:23.038Z,54.10
2023-05-20T19:35:49.953Z,54.20
2023-05-20T19:38:16.886Z,54.10
2023-05-20T19:40:44.293Z,54.20
2023-05-20T19:43:14.238Z,54.10
2023-05-20T19:45:41.074Z,54.20
2023-05-20T19:48:11.073Z,54.10
2023-05-20T19:50:38.032Z,54.10
2023-05-20T19:53:07.429Z,54.20
2023-05-20T19:55:35.431Z,54.20
2023-05-20T19:58:02.730Z,54.10
2023-05-20T20:00:29.723Z,54.10
2023-05-20T20:02:57.114Z,54.20
2023-05-20T20:05:25.961Z,54.20
2023-05-20T20:07:52.949Z,54.00
2023-05-20T20:10:19.806Z,54.10
2023-05-20T20:12:46.572Z,54.10
2023-05-20T20:15:14.290Z,53.80
2023-05-20T20:17:45.407Z,53.60
2023-05-20T20:20:13.984Z,53.40
2023-05-20T20:22:41.336Z,53.20
2023-05-20T20:25:08.631Z,53.00
2023-05-20T20:27:35.483Z,52.80
2023-05-20T20:30:04.523Z,52.90
2023-05-20T20:32:31.345Z,53.00
2023-05-20T20:35:03.829Z,53.10
2023-05-20T20:37:30.605Z,53.10
2023-05-20T20:39:58.884Z,53.20
2023-05-20T20:42:26.561Z,53.30
2023-05-20T20:44:55.664Z,53.30
2023-05-20T20:47:23.712Z,53.40
2023-05-20T20:49:51.133Z,53.50
2023-05-20T20:52:17.974Z,53.50
2023-05-20T20:54:45.448Z,53.50
2023-05-20T20:57:12.384Z,53.60
2023-05-20T20:59:39.997Z,53.50
2023-05-20T21:02:06.976Z,53.50
2023-05-20T21:04:33.891Z,53.50
2023-05-20T21:07:02.134Z,53.50
2023-05-20T21:09:29.285Z,53.50
2023-05-20T21:12:00.515Z,53.60
2023-05-20T21:14:27.592Z,53.50
2023-05-20T21:16:54.501Z,53.50
2023-05-20T21:19:21.510Z,53.40
2023-05-20T21:21:48.318Z,53.50
2023-05-20T21:24:15.213Z,53.50
2023-05-20T21:26:41.949Z,53.60
2023-05-20T21:29:10.064Z,53.60
2023-05-20T21:31:36.868Z,53.50
2023-05-20T21:34:03.697Z,53.60
2023-05-20T21:36:30.733Z,53.60
2023-05-20T21:39:00.629Z,53.60
2023-05-20T21:41:27.578Z,53.70
2023-05-20T21:43:54.387Z,53.60
2023-05-20T21:46:21.553Z,53.60
2023-05-20T21:48:54.414Z,53.60
2023-05-20T21:51:24.263Z,53.60
2023-05-20T21:53:54.155Z,53.60
2023-05-20T21:56:24.042Z,53.60
2023-05-20T21:58:57.019Z,53.60
2023-05-20T22:01:23.845Z,53.60
2023-05-20T22:03:53.988Z,53.60
2023-05-20T22:06:21.526Z,53.60
2023-05-20T22:08:49.335Z,53.60
2023-05-20T22:11:19.885Z,53.70
2023-05-20T22:13:46.767Z,53.60
2023-05-20T22:16:14.329Z,53.60
2023-05-20T22:18:41.550Z,53.60
2023-05-20T22:21:08.766Z,53.60
2023-05-20T22:23:35.664Z,53.60
2023-05-20T22:26:06.372Z,53.60
2023-05-20T22:28:33.253Z,53.60
2023-05-20T22:31:00.158Z,53.50
2023-05-20T22:33:30.131Z,53.50
2023-05-20T22:35:59.677Z,53.40
2023-05-20T22:38:27.386Z,53.40
2023-05-20T22:40:54.230Z,53.60
2023-05-20T22:43:24.727Z,53.40
2023-05-20T22:45:51.561Z,53.50
2023-05-20T22:48:23.075Z,53.50
2023-05-20T22:50:50.481Z,53.70
2023-05-20T22:53:17.199Z,54.00
2023-05-20T22:55:44.062Z,53.30
2023-05-20T22:58:16.942Z,53.10
2023-05-20T23:00:44.641Z,52.80
2023-05-20T23:03:12.242Z,52.70
2023-05-20T23:05:39.244Z,52.50
2023-05-20T23:08:09.105Z,53.10
2023-05-20T23:10:35.922Z,52.50
2023-05-20T23:13:08.980Z,52.50
2023-05-20T23:15:36.128Z,52.60
2023-05-20T23:18:06.049Z,52.70
2023-05-20T23:20:32.945Z,52.80
2023-05-20T23:23:10.642Z,52.80
2023-05-20T23:25:38.494Z,52.90
2023-05-20T23:28:08.228Z,52.90
2023-05-20T23:30:38.375Z,53.60
2023-05-20T23:33:11.358Z,53.00
2023-05-20T23:35:38.857Z,53.60
2023-05-20T23:38:12.003Z,53.00
2023-05-20T23:40:38.879Z,53.00
2023-05-20T23:43:08.459Z,53.60
2023-05-20T23:45:35.368Z,53.00
2023-05-20T23:48:05.784Z,53.10
2023-05-20T23:50:32.882Z,53.00
2023-05-20T23:52:59.833Z,53.10
2023-05-20T23:55:28.407Z,53.00
2023-05-20T23:57:55.274Z,53.10
